Latest Weather Observations for Legendre Island

IDW60801

Issued at 7:05 pm WST Saturday 23 August 2014 (issued every 30 minutes, with the page automatically refreshed every 10 minutes)

About weather observations | Map of weather stations | Latest weather observations for WA | Other Formats
Station Details ID: 004095 Name: LEGENDRE ISLAND Lat: -20.36 Lon: 116.84 Height: 29.0 m
Data from the previous 72 hours. | See also: Recent months for locations in Western Australia
Date/Time
WST
Temp
°C
App
Temp
°C
Dew
Point
Rel
Hum
%
Delta-T
°C
Wind Press
QNH
hPa
Press
MSL
hPa
Rain
since 9 am
mm
Dir
 
Spd
km/h
Gust
km/h
Spd
kts
Gust
kts
23/07:00pm 22.7 22.8 18.3 76 2.8 N 15 17 8 9 1018.2 1018.1 -
23/06:30pm 22.8 22.3 17.9 74 3.1 NNE 17 19 9 10 1018.0 1017.9 -
23/06:00pm 22.9 22.3 17.6 72 3.3 NNE 17 19 9 10 1017.6 1017.4 -
23/05:30pm 23.3 22.8 17.7 71 3.5 NNE 17 19 9 10 1017.4 1017.2 -
23/05:00pm 23.7 23.0 17.4 68 3.9 NE 17 19 9 10 1017.3 1017.1 -
23/04:30pm 24.0 23.1 16.8 64 4.4 ENE 17 19 9 10 1017.3 1017.1 -
23/04:00pm 24.6 23.8 16.1 59 5.2 ENE 15 17 8 9 1017.2 1017.0 -
23/03:30pm 25.3 24.3 15.6 55 5.9 ENE 15 17 8 9 1017.3 1017.1 -
23/03:00pm 25.4 23.8 15.1 53 6.2 ENE 17 19 9 10 1017.4 1017.2 -
23/02:30pm 25.7 24.4 14.8 51 6.5 ENE 15 17 8 9 1017.6 1017.4 -
23/02:00pm 25.6 24.6 14.7 51 6.5 ENE 13 15 7 8 1017.7 1017.5 -
23/01:30pm 25.9 25.1 14.1 48 7.0 ENE 11 13 6 7 1018.0 1017.9 -
23/01:00pm 25.6 24.2 13.5 47 7.1 ENE 13 15 7 8 1018.2 1018.1 -
23/12:30pm 25.6 24.9 16.5 57 5.6 ENE 15 17 8 9 1018.7 1018.6 -
23/12:00pm 25.7 25.0 16.3 56 5.8 ENE 15 17 8 9 1018.8 1018.7 -
23/11:30am 25.3 24.4 15.9 56 5.7 E 15 17 8 9 1019.2 1019.1 -
23/11:00am 25.1 24.1 14.6 52 6.3 E 13 15 7 8 1019.2 1019.1 -
23/10:30am 24.9 24.1 15.0 54 5.9 E 13 15 7 8 1019.3 1019.2 -
23/10:00am 24.9 23.8 14.4 52 6.2 E 13 15 7 8 1019.5 1019.4 -
23/09:30am 24.5 24.3 16.7 61 4.8 E 13 17 7 9 1019.4 1019.3 -
23/09:00am 23.7 23.8 17.4 68 3.9 E 13 15 7 8 1019.3 1019.2 -
23/08:30am 23.0 22.6 16.3 66 4.1 ESE 13 17 7 9 1019.2 1019.1 -
23/08:00am 21.5 21.6 17.5 78 2.5 ESE 13 17 7 9 1018.7 1018.6 -
23/07:30am 20.2 20.8 17.8 86 1.5 SSE 11 13 6 7 1018.3 1018.2 -
23/07:00am 19.1 19.7 16.9 87 1.3 SSE 9 11 5 6 1018.0 1017.9 -
23/06:30am 18.5 18.1 16.1 86 1.4 S 13 13 7 7 1017.7 1017.5 -
23/06:00am 18.8 17.5 15.9 83 1.7 SSE 17 19 9 10 1017.4 1017.2 -
23/05:30am 18.3 18.2 16.1 87 1.3 SE 11 13 6 7 1017.0 1016.8 -
23/05:00am 18.4 18.2 16.6 89 1.1 S 13 15 7 8 1016.6 1016.4 -
23/04:30am 18.4 17.9 16.9 91 0.9 S 15 17 8 9 1016.5 1016.3 -
23/04:00am 18.1 17.9 17.5 96 0.4 S 15 19 8 10 1016.5 1016.3 -
23/03:30am 18.5 18.6 18.3 99 0.1 S 15 17 8 9 1016.7 1016.5 -
23/03:00am 19.3 20.9 19.1 99 0.1 S 9 11 5 6 1016.8 1016.6 -
23/02:30am 19.1 19.5 18.9 99 0.1 S 15 17 8 9 1016.6 1016.4 -
23/02:00am 19.6 20.7 19.6 100 0.0 S 13 15 7 8 1016.8 1016.6 -
23/01:30am 19.8 21.2 19.6 99 0.1 S 11 15 6 8 1016.9 1016.7 -
23/01:00am 20.0 21.2 19.8 99 0.1 S 13 15 7 8 1017.0 1016.8 -
23/12:30am 20.6 21.7 20.4 99 0.1 SSW 15 19 8 10 1017.2 1017.0 -
23/12:00am 20.5 22.1 20.0 97 0.3 SW 11 13 6 7 1017.0 1016.8 -
 
Date/Time
WST
Temp
°C
App
Temp
°C
Dew
Point
Rel
Hum
%
Delta-T
°C
Wind Press
QNH
hPa
Press
MSL
hPa
Rain
since 9 am
mm
Dir
 
Spd
km/h
Gust
km/h
Spd
kts
Gust
kts
22/11:30pm 20.3 21.2 19.3 94 0.6 SW 13 15 7 8 1017.2 1017.0 -
22/11:00pm 21.4 23.4 20.0 92 0.9 SW 9 9 5 5 1017.3 1017.1 -
22/10:30pm 21.0 22.8 19.5 91 1.0 WSW 9 11 5 6 1017.4 1017.2 -
22/10:00pm 21.6 23.0 19.5 88 1.3 WNW 11 15 6 8 1017.3 1017.1 -
22/09:30pm 21.7 21.6 19.6 88 1.3 NW 19 20 10 11 1017.1 1016.9 -
22/09:00pm 21.9 22.9 19.5 86 1.5 NW 13 15 7 8 1017.3 1017.1 -
22/08:30pm 22.2 23.3 19.6 85 1.7 NNW 13 15 7 8 1017.2 1017.0 -
22/08:00pm 22.3 23.3 19.5 84 1.8 NNW 13 15 7 8 1017.0 1016.8 -
22/07:30pm 22.4 23.7 19.2 82 2.0 NNW 11 13 6 7 1016.8 1016.6 -
22/07:00pm 22.6 23.8 19.0 80 2.3 N 11 13 6 7 1016.3 1016.1 -
22/06:30pm 22.8 23.7 18.3 76 2.8 N 11 13 6 7 1015.9 1015.7 -
22/06:00pm 23.1 24.2 18.0 73 3.2 N 9 9 5 5 1015.6 1015.4 -
22/05:30pm 23.6 24.4 17.3 67 3.9 N 9 9 5 5 1015.2 1015.1 -
22/05:00pm 24.2 24.8 16.7 63 4.6 N 9 9 5 5 1015.1 1015.0 -
22/04:30pm 24.4 24.5 16.6 61 4.8 N 11 13 6 7 1015.0 1014.9 -
22/04:00pm 25.4 25.5 16.5 58 5.5 NNE 11 13 6 7 1014.9 1014.8 -
22/03:30pm 25.3 25.5 16.7 59 5.3 NNE 11 13 6 7 1014.8 1014.7 -
22/03:00pm 25.3 25.4 16.4 57 5.5 NE 11 13 6 7 1014.9 1014.8 -
22/02:30pm 25.1 25.2 16.5 59 5.3 NE 11 13 6 7 1015.0 1014.9 -
22/02:00pm 25.0 24.7 16.4 59 5.3 NE 13 15 7 8 1015.1 1015.0 -
22/01:30pm 25.2 25.0 16.6 59 5.3 ENE 13 15 7 8 1015.3 1015.2 -
22/01:00pm 24.9 24.3 16.6 60 5.1 ENE 15 17 8 9 1015.8 1015.6 -
22/12:30pm 25.0 24.0 16.7 60 5.1 ENE 17 19 9 10 1016.2 1016.0 -
22/12:00pm 24.5 23.5 16.5 61 4.9 ENE 17 19 9 10 1016.5 1016.3 -
22/11:30am 25.1 24.4 16.5 59 5.3 ENE 15 19 8 10 1016.8 1016.6 -
22/11:00am 24.8 24.0 16.2 58 5.3 E 15 17 8 9 1017.2 1017.0 -
22/10:30am 24.4 23.9 15.9 59 5.2 E 13 17 7 9 1017.3 1017.1 -
22/10:00am 24.0 23.2 15.2 58 5.3 E 13 15 7 8 1017.4 1017.2 -
22/09:30am 23.6 22.9 15.4 60 4.9 E 13 15 7 8 1017.4 1017.2 -
22/09:00am 22.6 21.6 14.7 61 4.7 E 13 15 7 8 1017.3 1017.1 -
22/08:30am 22.3 21.9 15.2 64 4.2 E 11 13 6 7 1017.0 1016.8 -
22/08:00am 21.6 22.2 15.7 69 3.5 ESE 7 11 4 6 1016.8 1016.6 -
22/07:30am 20.5 21.5 16.3 77 2.5 SSE 6 6 3 3 1016.6 1016.4 -
22/07:00am 18.9 19.3 15.2 79 2.2 SSE 7 9 4 5 1016.3 1016.1 -
22/06:30am 18.6 18.6 15.3 81 1.9 S 9 11 5 6 1016.1 1015.9 -
22/06:00am 18.6 17.6 14.7 78 2.3 S 13 15 7 8 1015.9 1015.7 -
22/05:30am 18.8 17.2 15.1 79 2.2 SW 17 20 9 11 1015.1 1015.0 -
22/05:00am 18.8 17.8 15.5 81 1.9 SSW 15 19 8 10 1015.0 1014.9 -
22/04:30am 19.3 18.0 15.8 80 2.1 SW 17 20 9 11 1014.8 1014.7 -
22/04:00am 19.5 17.9 16.0 80 2.1 SW 19 22 10 12 1014.8 1014.7 -
22/03:30am 19.5 18.5 16.7 84 1.7 SW 17 20 9 11 1014.9 1014.8 -
22/03:00am 19.7 18.7 16.7 83 1.8 SW 17 19 9 10 1015.2 1015.1 -
22/02:30am 20.0 18.9 16.4 80 2.2 SW 17 20 9 11 1015.6 1015.4 -
22/02:00am 19.9 18.7 16.0 78 2.3 SW 17 22 9 12 1016.0 1015.8 -
22/01:30am 19.8 18.7 15.4 76 2.6 SW 15 19 8 10 1016.3 1016.1 -
22/01:00am 19.5 18.3 15.0 75 2.6 SW 15 19 8 10 1016.6 1016.4 -
22/12:30am 19.6 19.1 15.0 75 2.7 WSW 11 13 6 7 1016.9 1016.7 -
22/12:00am 19.8 19.0 15.0 74 2.8 WSW 13 15 7 8 1016.9 1016.7 -
 
Date/Time
WST
Temp
°C
App
Temp
°C
Dew
Point
Rel
Hum
%
Delta-T
°C
Wind Press
QNH
hPa
Press
MSL
hPa
Rain
since 9 am
mm
Dir
 
Spd
km/h
Gust
km/h
Spd
kts
Gust
kts
21/11:30pm 20.3 18.9 15.5 74 2.8 WSW 17 19 9 10 1016.9 1016.7 -
21/11:00pm 20.4 18.6 15.4 73 3.0 WSW 19 22 10 12 1016.9 1016.7 -
21/10:30pm 20.3 18.4 15.3 73 3.0 SW 19 20 10 11 1017.0 1016.8 -
21/10:00pm 20.1 18.8 14.9 72 3.0 WSW 15 19 8 10 1017.0 1016.8 -
21/09:30pm 20.0 18.8 15.0 73 2.9 WSW 15 17 8 9 1017.0 1016.8 -
21/09:00pm 20.3 19.0 14.9 71 3.2 W 15 15 8 8 1017.0 1016.8 -
21/08:30pm 20.9 19.7 15.0 69 3.5 W 15 17 8 9 1016.6 1016.4 -
21/08:00pm 20.9 19.1 14.5 67 3.7 W 17 19 9 10 1016.4 1016.2 -
21/07:30pm 21.0 18.9 13.7 63 4.2 W 17 17 9 9 1015.9 1015.7 -
21/07:00pm 21.2 19.3 13.1 60 4.6 W 15 17 8 9 1015.5 1015.3 -
21/06:30pm 21.4 19.4 12.8 58 4.9 W 15 15 8 8 1015.1 1015.0 -
21/06:00pm 22.2 20.7 11.9 52 5.8 W 11 13 6 7 1014.9 1014.8 -
21/05:30pm 23.7 22.1 11.4 46 6.9 WNW 11 15 6 8 1014.8 1014.7 -
21/05:00pm 24.2 22.2 10.1 41 7.8 NW 11 13 6 7 1014.6 1014.5 -
21/04:30pm 24.6 22.6 10.1 40 8.0 NNW 11 13 6 7 1014.4 1014.3 -
21/04:00pm 25.1 23.3 12.0 44 7.5 N 13 15 7 8 1014.3 1014.2 -
21/03:30pm 25.6 23.5 9.8 37 8.7 N 11 13 6 7 1014.3 1014.2 -
21/03:00pm 25.4 23.4 10.1 38 8.5 N 11 11 6 6 1014.3 1014.2 -
21/02:30pm 25.2 23.3 9.1 36 8.8 N 9 11 5 6 1014.5 1014.4 -
21/02:00pm 25.4 23.4 8.8 35 9.0 N 9 11 5 6 1014.6 1014.5 -
21/01:30pm 25.0 22.9 8.1 34 9.0 N 9 9 5 5 1014.9 1014.8 -
21/01:00pm 25.2 23.2 7.3 32 9.4 N 7 9 4 5 1015.3 1015.2 -
21/12:30pm 25.5 23.4 6.7 30 9.8 NNE 7 9 4 5 1015.7 1015.5 -
21/12:00pm 25.7 24.0 8.2 33 9.4 NE 7 11 4 6 1016.1 1015.9 -
21/11:30am 25.2 23.5 8.2 34 9.1 NE 7 7 4 4 1016.6 1016.4 -
21/11:00am 24.7 23.2 9.0 37 8.5 NE 7 7 4 4 1016.9 1016.7 -
21/10:30am 24.3 22.8 9.1 38 8.2 E 7 9 4 5 1017.2 1017.0 -
21/10:00am 24.1 22.7 9.7 40 7.9 ENE 7 9 4 5 1017.3 1017.1 -
21/09:30am 24.0 22.7 9.9 41 7.7 ENE 7 9 4 5 1017.2 1017.0 -
21/09:00am 24.5 21.8 5.8 30 9.5 SE 9 15 5 8 1017.2 1017.0 -
21/08:30am 23.1 20.9 6.4 34 8.5 SSE 7 9 4 5 1016.9 1016.7 -
21/08:00am 20.7 20.8 14.4 67 3.7 S 7 9 4 5 1016.6 1016.4 -
21/07:30am 20.3 20.3 15.1 72 3.1 S 9 9 5 5 1016.2 1016.0 -
21/07:00am 19.2 18.6 12.2 64 3.9 SSW 7 7 4 4 1015.8 1015.6 -
21/06:30am 19.2 18.6 12.2 64 3.9 SW 7 9 4 5 1015.5 1015.3 -
21/06:00am 18.8 17.5 11.4 62 4.0 WSW 9 11 5 6 1015.2 1015.1 -
21/05:30am 19.3 17.9 10.8 58 4.6 WSW 9 9 5 5 1015.1 1015.0 -
21/05:00am 18.5 16.8 11.3 63 3.9 W 11 11 6 6 1014.9 1014.8 -
21/04:30am 19.1 18.9 15.8 81 2.0 W 11 13 6 7 1014.8 1014.7 -
21/04:00am 19.3 19.0 15.4 78 2.3 W 11 11 6 6 1014.7 1014.6 -
21/03:30am 20.3 21.1 15.9 76 2.6 WNW 6 7 3 4 1014.7 1014.6 -
21/03:00am 20.6 22.3 17.2 81 2.1 W 4 4 2 2 1014.7 1014.6 -
21/02:30am 20.6 22.4 17.4 82 2.0 W 4 4 2 2 1014.9 1014.8 -
21/02:00am 20.7 22.5 17.3 81 2.1 WSW 4 4 2 2 1015.0 1014.9 -
21/01:30am 20.7 22.8 17.1 80 2.2 WSW 2 2 1 1 1015.5 1015.3 -
21/01:00am 20.4 21.5 16.6 79 2.3 WSW 6 7 3 4 1015.8 1015.6 -
21/12:30am 19.9 20.6 16.2 79 2.2 WSW 7 9 4 5 1015.8 1015.6 -
21/12:00am 19.9 20.0 15.5 76 2.6 W 9 9 5 5 1015.9 1015.7 -
 
Date/Time
WST
Temp
°C
App
Temp
°C
Dew
Point
Rel
Hum
%
Delta-T
°C
Wind Press
QNH
hPa
Press
MSL
hPa
Rain
since 9 am
mm
Dir
 
Spd
km/h
Gust
km/h
Spd
kts
Gust
kts
20/11:30pm 20.0 20.1 15.4 75 2.7 W 9 9 5 5 1016.0 1015.8 -
20/11:00pm 20.0 20.0 15.2 74 2.8 W 9 11 5 6 1016.3 1016.1 -
20/10:30pm 20.5 20.3 15.7 74 2.9 WNW 11 11 6 6 1016.4 1016.2 -
20/10:00pm 20.2 19.6 15.6 75 2.7 W 13 15 7 8 1016.2 1016.0 -
20/09:30pm 20.7 20.6 16.1 75 2.8 WNW 11 13 6 7 1016.3 1016.1 -
20/09:00pm 20.5 20.2 15.5 73 3.0 NW 11 13 6 7 1016.3 1016.1 -
20/08:30pm 20.7 20.4 15.5 72 3.1 NW 11 13 6 7 1016.2 1016.0 -
20/08:00pm 20.6 20.2 15.2 71 3.2 NW 11 13 6 7 1015.9 1015.7 -
20/07:30pm 21.1 20.3 15.0 68 3.6 NW 13 15 7 8 1015.5 1015.3 -

Other Formats:

Comma delimited format used in spreadsheet applications
http://www.bom.gov.au/fwo/IDW60801/IDW60801.94307.axf

JavaScript Object Notation format (JSON) in row-major order
http://www.bom.gov.au/fwo/IDW60801/IDW60801.94307.json